Time;durP1;ratioP1;P1;durP2;ratioP2;P2;SDS_P1;SDS_P2;PMS_P1;PMS_P2;Temp;Humidity;BMP_temperature;BMP_pressure;BME280_temperature;BME280_humidity;BME280_pressure;Samples;Min_cycle;Max_cycle;Signal;HPM_P1;HPM_P2
2022/04/02 00:00:00;;;;;;;0.70;0.70;;;;;;;-0.63;89.41;95635.19;29373;216;63005;-60
2022/04/02 00:00:33;;;;;;;0.60;0.60;;;;;;;-0.71;89.69;95644.47;29373;347;63009;-59
2022/04/02 00:01:04;;;;;;;0.70;0.70;;;;;;;-0.76;90.26;95642.56;29373;284;63005;-59
2022/04/02 00:01:39;;;;;;;0.70;0.70;;;;;;;-0.79;90.36;95643.06;29371;326;64013;-60
2022/04/02 00:02:11;;;;;;;0.70;0.70;;;;;;;-0.82;90.52;95645.41;29373;222;63010;-61
2022/04/02 00:02:44;;;;;;;0.95;0.95;;;;;;;-0.82;91.28;95640.87;29373;202;63009;-61
2022/04/02 00:03:16;;;;;;;0.70;0.70;;;;;;;-0.79;91.22;95643.06;29373;225;63004;-61
2022/04/02 00:03:47;;;;;;;0.70;0.70;;;;;;;-0.74;91.21;95640.44;29373;205;63009;-61
2022/04/02 00:04:18;;;;;;;0.70;0.70;;;;;;;-0.75;91.02;95644.16;29373;233;63004;-60
2022/04/02 00:04:49;;;;;;;0.70;0.70;;;;;;;-0.71;91.34;95644.47;29373;196;63009;-63
2022/04/02 00:05:21;;;;;;;0.80;0.80;;;;;;;-0.69;90.90;95643.13;29373;211;63004;-61
2022/04/02 00:05:52;;;;;;;0.90;0.90;;;;;;;-0.68;90.87;95638.59;29372;236;63008;-59
2022/04/02 00:06:24;;;;;;;0.80;0.80;;;;;;;-0.69;91.07;95640.47;29371;214;64009;-61
2022/04/02 00:06:56;;;;;;;0.65;0.65;;;;;;;-0.67;90.95;95635.69;29373;326;63009;-60
2022/04/02 00:07:28;;;;;;;0.60;0.60;;;;;;;-0.68;90.79;95643.94;29373;204;63005;-59
2022/04/02 00:07:59;;;;;;;0.62;0.62;;;;;;;-0.68;91.24;95639.41;29373;204;63009;-61
2022/04/02 00:08:30;;;;;;;0.60;0.60;;;;;;;-0.70;91.27;95633.56;29373;198;63005;-56
2022/04/02 00:09:03;;;;;;;0.70;0.70;;;;;;;-0.75;91.28;95644.16;29373;219;63009;-61
2022/04/02 00:09:34;;;;;;;0.70;0.70;;;;;;;-0.73;91.15;95642.06;29373;215;63005;-62
2022/04/02 00:10:08;;;;;;;0.70;0.70;;;;;;;-0.74;91.25;95636.97;29371;198;64013;-62
2022/04/02 00:10:39;;;;;;;0.82;0.82;;;;;;;-0.65;91.12;95629.31;29373;250;63004;-62
2022/04/02 00:11:11;;;;;;;0.90;0.90;;;;;;;-0.52;90.09;95636.91;29371;202;64013;-67
2022/04/02 00:11:42;;;;;;;0.93;0.93;;;;;;;-0.46;89.25;95642.03;29373;220;63004;-61
2022/04/02 00:12:13;;;;;;;0.70;0.70;;;;;;;-0.51;89.06;95638.50;29371;199;64013;-60
2022/04/02 00:12:45;;;;;;;1.45;1.45;;;;;;;-0.53;89.26;95629.97;29373;214;63004;-62
2022/04/02 00:13:17;;;;;;;0.80;0.80;;;;;;;-0.47;89.12;95642.28;29371;328;64013;-60
2022/04/02 00:13:48;;;;;;;0.70;0.70;;;;;;;-0.47;89.37;95644.94;29373;321;63005;-62
2022/04/02 00:14:20;;;;;;;0.70;0.70;;;;;;;-0.49;89.36;95636.41;29373;252;63009;-59
2022/04/02 00:14:51;;;;;;;0.60;0.60;;;;;;;-0.52;89.43;95637.69;29373;202;63005;-61
2022/04/02 00:15:23;;;;;;;0.70;0.70;;;;;;;-0.56;89.66;95638.47;29373;225;63009;-60
2022/04/02 00:15:59;;;;;;;0.70;0.70;;;;;;;-0.56;89.73;95635.78;29373;226;63005;-60
2022/04/02 00:16:30;;;;;;;0.85;0.85;;;;;;;-0.57;89.91;95634.19;29371;332;64013;-61
2022/04/02 00:17:02;;;;;;;0.70;0.70;;;;;;;-0.61;89.79;95638.41;29373;257;63009;-60
2022/04/02 00:17:33;;;;;;;0.70;0.70;;;;;;;-0.66;90.02;95636.50;29373;207;63009;-62
2022/04/02 00:18:05;;;;;;;0.60;0.60;;;;;;;-0.68;90.17;95639.41;29373;199;63004;-60
2022/04/02 00:18:37;;;;;;;0.70;0.70;;;;;;;-0.67;90.60;95635.69;29373;320;63009;-60
2022/04/02 00:19:09;;;;;;;0.70;0.70;;;;;;;-0.62;90.55;95636.81;29373;284;63004;-60
2022/04/02 00:19:40;;;;;;;0.70;0.70;;;;;;;-0.63;90.45;95629.88;29373;207;63009;-61
2022/04/02 00:20:12;;;;;;;0.70;0.70;;;;;;;-0.54;90.27;95639.00;29373;294;63004;-63
2022/04/02 00:20:43;;;;;;;0.60;0.60;;;;;;;-0.47;89.59;95640.41;29373;231;63008;-62
2022/04/02 00:21:14;;;;;;;0.70;0.70;;;;;;;-0.48;89.27;95643.34;29373;208;63005;-61
2022/04/02 00:21:45;;;;;;;0.70;0.70;;;;;;;-0.52;89.23;95639.56;29371;267;64014;-61
2022/04/02 00:22:16;;;;;;;0.70;0.70;;;;;;;-0.56;89.43;95635.78;29373;215;63005;-61
2022/04/02 00:23:39;;;;;;;1.17;1.17;;;;;;;-0.58;89.93;95638.72;29373;204;63010;-61
2022/04/02 00:24:10;;;;;;;0.70;0.70;;;;;;;-0.57;89.87;95634.19;29373;206;63009;-61
2022/04/02 00:24:41;;;;;;;0.70;0.70;;;;;;;-0.60;90.14;95642.69;29373;202;63004;-61
2022/04/02 00:25:12;;;;;;;0.80;0.80;;;;;;;-0.63;90.06;95640.50;29373;364;63009;-62
2022/04/02 00:25:44;;;;;;;0.90;0.90;;;;;;;-0.54;90.12;95631.00;29373;265;63004;-67
2022/04/02 00:26:19;;;;;;;0.60;0.60;;;;;;;-0.50;89.43;95640.91;29373;305;63009;-62
2022/04/02 00:26:50;;;;;;;0.80;0.80;;;;;;;-0.46;89.13;95634.03;29371;218;64009;-61
2022/04/02 00:27:22;;;;;;;0.70;0.70;;;;;;;-0.50;88.96;95640.91;29373;220;63008;-59
2022/04/02 00:27:53;;;;;;;0.70;0.70;;;;;;;-0.57;88.99;95644.84;29373;226;63004;-60
2022/04/02 00:28:24;;;;;;;0.60;0.60;;;;;;;-0.57;89.63;95642.19;29373;256;63008;-62
2022/04/02 00:28:55;;;;;;;1.40;0.90;;;;;;;-0.50;89.41;95637.44;29373;214;63005;-62
2022/04/02 00:29:27;;;;;;;0.70;0.70;;;;;;;-0.51;89.22;95641.16;29373;204;63009;-62
2022/04/02 00:29:58;;;;;;;0.60;0.60;;;;;;;-0.49;89.14;95649.72;29373;216;63005;-63
2022/04/02 00:30:29;;;;;;;0.68;0.68;;;;;;;-0.42;89.00;95643.13;29373;228;63009;-67
2022/04/02 00:31:01;;;;;;;0.93;0.93;;;;;;;-0.37;88.36;95650.38;29373;205;63005;-61
2022/04/02 00:31:32;;;;;;;0.70;0.70;;;;;;;-0.37;88.17;95653.84;29373;202;63009;-62
2022/04/02 00:32:05;;;;;;;0.70;0.70;;;;;;;-0.39;88.07;95641.81;29371;265;64009;-62
2022/04/02 00:32:37;;;;;;;0.80;0.80;;;;;;;-0.42;88.08;95647.66;29373;242;63013;-63
2022/04/02 00:33:11;;;;;;;1.42;1.37;;;;;;;-0.37;88.19;95645.03;29371;263;64009;-61
2022/04/02 00:33:46;;;;;;;0.70;0.70;;;;;;;-0.43;88.22;95638.06;29373;228;63009;-61
2022/04/02 00:34:18;;;;;;;1.92;1.83;;;;;;;-0.43;88.37;95643.38;29373;228;63004;-67
2022/04/02 00:34:50;;;;;;;0.70;0.70;;;;;;;-0.49;88.29;95637.19;29373;207;63008;-60
2022/04/02 00:35:21;;;;;;;0.62;0.62;;;;;;;-0.56;88.50;95641.13;29371;215;64008;-62
2022/04/02 00:35:53;;;;;;;1.00;1.00;;;;;;;-0.52;88.92;95642.22;29373;203;63009;-61
2022/04/02 00:36:24;;;;;;;0.70;0.70;;;;;;;-0.54;88.71;95641.69;29373;237;63005;-59
2022/04/02 00:36:56;;;;;;;0.70;0.70;;;;;;;-0.59;89.03;95645.09;29373;199;63009;-63
2022/04/02 00:37:28;;;;;;;0.70;0.70;;;;;;;-0.56;89.10;95646.44;29373;200;63005;-62
2022/04/02 00:38:03;;;;;;;0.80;0.80;;;;;;;-0.55;89.36;95637.41;29373;202;63009;-62
2022/04/02 00:38:35;;;;;;;1.00;1.00;;;;;;;-0.55;88.96;95643.53;29373;204;63005;-61
2022/04/02 00:39:08;;;;;;;0.65;0.65;;;;;;;-0.58;89.17;95640.56;29373;265;63009;-62
2022/04/02 00:39:39;;;;;;;0.70;0.70;;;;;;;-0.58;89.15;95643.22;29373;227;63005;-63
2022/04/02 00:40:11;;;;;;;2.55;1.98;;;;;;;-0.57;89.34;95644.84;29373;198;63009;-62
2022/04/02 00:40:42;;;;;;;0.68;0.68;;;;;;;-0.62;89.36;95642.13;29371;253;64009;-62
2022/04/02 00:41:15;;;;;;;0.70;0.70;;;;;;;-0.60;89.57;95645.34;29373;281;63009;-62
2022/04/02 00:41:46;;;;;;;0.60;0.60;;;;;;;-0.57;89.52;95642.19;29373;246;63004;-63
2022/04/02 00:42:20;;;;;;;0.70;0.70;;;;;;;-0.59;89.44;95646.94;29371;204;64013;-58
2022/04/02 00:42:52;;;;;;;0.95;0.93;;;;;;;-0.53;89.08;95645.94;29373;208;63004;-62
2022/04/02 00:43:38;;;;;;;0.82;0.82;;;;;;;-0.50;89.11;95640.13;29373;222;63009;-62
2022/04/02 00:44:13;;;;;;;0.60;0.60;;;;;;;-0.48;88.91;95644.13;29371;203;64009;-63
2022/04/02 00:44:44;;;;;;;1.00;1.00;;;;;;;-0.43;88.64;95644.19;29373;203;63009;-62
2022/04/02 00:45:15;;;;;;;0.70;0.70;;;;;;;-0.44;88.32;95644.44;29373;278;63005;-64
2022/04/02 00:45:46;;;;;;;0.60;0.60;;;;;;;-0.45;88.55;95645.50;29373;284;63009;-62
2022/04/02 00:46:17;;;;;;;0.80;0.80;;;;;;;-0.46;88.56;95642.03;29371;220;64009;-62
2022/04/02 00:46:48;;;;;;;0.70;0.70;;;;;;;-0.43;88.17;95648.72;29373;297;63009;-63
2022/04/02 00:47:23;;;;;;;1.02;0.93;;;;;;;-0.38;87.86;95649.56;29373;265;63004;-63
2022/04/02 00:47:54;;;;;;;1.10;0.90;;;;;;;-0.37;87.66;95651.16;29373;202;63009;-65
2022/04/02 00:48:29;;;;;;;0.65;0.65;;;;;;;-0.40;87.66;95643.69;29373;270;63004;-65
2022/04/02 00:49:00;;;;;;;1.02;1.02;;;;;;;-0.41;87.67;95638.59;29373;279;63009;-63
2022/04/02 00:49:31;;;;;;;1.20;1.10;;;;;;;-0.41;87.84;95644.72;29373;197;63004;-67
2022/04/02 00:50:04;;;;;;;0.60;0.60;;;;;;;-0.44;87.72;95645.25;29373;249;63008;-63
2022/04/02 00:50:36;;;;;;;0.70;0.70;;;;;;;-0.46;87.93;95646.53;29373;203;63001;-64
2022/04/02 00:51:11;;;;;;;0.70;0.70;;;;;;;-0.44;88.00;95636.44;29373;202;63009;-64
2022/04/02 00:51:44;;;;;;;0.70;0.70;;;;;;;-0.44;88.01;95645.25;29371;211;64009;-62
2022/04/02 00:52:15;;;;;;;0.75;0.75;;;;;;;-0.46;88.04;95641.22;29371;204;64028;-63
2022/04/02 00:52:49;;;;;;;0.77;0.77;;;;;;;-0.45;88.01;95643.63;29373;210;63005;-62
2022/04/02 00:53:21;;;;;;;0.70;0.70;;;;;;;-0.43;87.72;95635.38;29373;237;63014;-62
2022/04/02 00:53:52;;;;;;;0.70;0.70;;;;;;;-0.48;87.73;95638.81;29373;198;63005;-62
2022/04/02 00:54:23;;;;;;;0.70;0.70;;;;;;;-0.53;88.02;95635.28;29373;199;63009;-62
2022/04/02 00:54:54;;;;;;;0.80;0.80;;;;;;;-0.54;88.25;95634.47;29373;216;63004;-65
2022/04/02 00:55:30;;;;;;;0.80;0.80;;;;;;;-0.53;88.36;95635.28;29373;202;63009;-63
2022/04/02 00:56:02;;;;;;;0.80;0.80;;;;;;;-0.49;88.39;95636.41;29373;204;63004;-64
2022/04/02 00:56:35;;;;;;;0.70;0.70;;;;;;;-0.50;88.21;95637.44;29373;254;63009;-64
2022/04/02 00:57:06;;;;;;;0.70;0.70;;;;;;;-0.52;88.32;95642.22;29373;210;63004;-61
2022/04/02 00:57:41;;;;;;;1.52;1.42;;;;;;;-0.47;88.07;95639.59;29371;218;64013;-69
2022/04/02 00:58:12;;;;;;;0.70;0.70;;;;;;;-0.41;87.66;95639.41;29373;230;63005;-62
2022/04/02 00:58:44;;;;;;;0.80;0.80;;;;;;;-0.47;87.61;95635.09;29373;202;63009;-63
2022/04/02 00:59:17;;;;;;;1.00;1.00;;;;;;;-0.46;87.79;95638.56;29373;212;63005;-62
2022/04/02 00:59:49;;;;;;;0.82;0.82;;;;;;;-0.47;87.91;95635.09;29371;311;64005;-62
2022/04/02 01:00:21;;;;;;;0.90;0.90;;;;;;;-0.51;87.87;95641.97;29373;300;63005;-65
2022/04/02 01:00:52;;;;;;;0.80;0.80;;;;;;;-0.49;88.05;95641.72;29371;211;64013;-61
2022/04/02 01:01:23;;;;;;;0.77;0.77;;;;;;;-0.51;88.12;95638.50;29373;367;63005;-63
2022/04/02 01:01:54;;;;;;;0.70;0.70;;;;;;;-0.51;88.30;95633.19;29373;202;63009;-63
2022/04/02 01:02:25;;;;;;;0.65;0.65;;;;;;;-0.53;88.23;95641.41;29372;202;63004;-57
2022/04/02 01:02:57;;;;;;;0.73;0.73;;;;;;;-0.57;88.48;95645.66;29373;286;63009;-62
2022/04/02 01:03:28;;;;;;;0.80;0.80;;;;;;;-0.61;88.81;95649.06;29373;202;63004;-58
2022/04/02 01:03:59;;;;;;;0.70;0.70;;;;;;;-0.62;88.92;95642.13;29373;246;63008;-61
2022/04/02 01:04:30;;;;;;;0.70;0.70;;;;;;;-0.67;88.90;95643.69;29373;211;63004;-59
2022/04/02 01:05:03;;;;;;;0.70;0.70;;;;;;;-0.69;89.38;95643.13;29373;220;63008;-60
2022/04/02 01:05:38;;;;;;;2.65;2.55;;;;;;;-0.69;89.54;95640.47;29373;289;63004;-62
2022/04/02 01:06:12;;;;;;;0.65;0.65;;;;;;;-0.61;89.27;95639.22;29371;214;64014;-58
2022/04/02 01:06:46;;;;;;;0.85;0.85;;;;;;;-0.59;89.13;95639.75;29373;206;63005;-61
2022/04/02 01:07:19;;;;;;;0.60;0.60;;;;;;;-0.64;89.24;95645.03;29373;256;63009;-61
2022/04/02 01:07:50;;;;;;;0.90;0.90;;;;;;;-0.67;89.12;95643.69;29373;205;63005;-62
2022/04/02 01:08:22;;;;;;;0.70;0.70;;;;;;;-0.69;89.64;95640.47;29373;207;63009;-61
2022/04/02 01:08:54;;;;;;;0.70;0.70;;;;;;;-0.72;89.59;95641.00;29373;278;63005;-61
2022/04/02 01:09:25;;;;;;;1.17;1.17;;;;;;;-0.72;89.94;95643.66;29373;277;63009;-62
2022/04/02 01:09:57;;;;;;;0.60;0.60;;;;;;;-0.73;89.68;95641.25;29373;239;63004;-60
2022/04/02 01:10:28;;;;;;;0.70;0.70;;;;;;;-0.80;89.83;95636.13;29373;210;63009;-55
2022/04/02 01:11:00;;;;;;;0.70;0.70;;;;;;;-0.86;90.32;95641.63;29371;202;64009;-61
2022/04/02 01:11:41;;;;;;;1.37;1.37;;;;;;;-0.91;90.44;95639.72;29371;215;64005;-61
2022/04/02 01:12:14;;;;;;;0.70;0.70;;;;;;;-0.91;90.66;95639.72;29373;272;63004;-62
2022/04/02 01:12:47;;;;;;;0.75;0.75;;;;;;;-0.85;90.92;95640.59;29373;227;63008;-62
2022/04/02 01:13:18;;;;;;;0.70;0.70;;;;;;;-0.78;90.93;95635.88;29373;226;63010;-62
2022/04/02 01:13:49;;;;;;;0.90;0.90;;;;;;;-0.71;90.74;95639.94;29373;230;63009;-61
2022/04/02 01:14:20;;;;;;;0.60;0.60;;;;;;;-0.73;90.33;95639.38;29373;207;63005;-61
2022/04/02 01:14:51;;;;;;;0.60;0.60;;;;;;;-0.75;90.38;95638.84;29373;227;63016;-60
2022/04/02 01:15:23;;;;;;;0.70;0.70;;;;;;;-0.78;90.69;95634.00;29373;205;63005;-61
2022/04/02 01:15:58;;;;;;;0.60;0.60;;;;;;;-0.80;90.82;95641.44;29373;197;63009;-59
2022/04/02 01:16:32;;;;;;;0.60;0.60;;;;;;;-0.80;90.64;95635.31;29371;322;64009;-60
2022/04/02 01:17:05;;;;;;;0.80;0.80;;;;;;;-0.78;91.12;95639.34;29373;196;63009;-60
2022/04/02 01:17:40;;;;;;;0.60;0.60;;;;;;;-0.69;90.80;95637.00;29373;212;63004;-60
2022/04/02 01:18:13;;;;;;;0.60;0.60;;;;;;;-0.68;90.70;95634.09;29373;203;63009;-60
2022/04/02 01:18:44;;;;;;;0.80;0.80;;;;;;;-0.65;90.49;95639.97;29373;330;63004;-61
2022/04/02 01:19:16;;;;;;;0.80;0.80;;;;;;;-0.63;90.84;95641.31;29373;202;63009;-62
2022/04/02 01:19:47;;;;;;;1.55;0.82;;;;;;;-0.56;89.77;95639.25;29373;265;63004;-61
2022/04/02 01:20:19;;;;;;;0.60;0.60;;;;;;;-0.45;89.54;95642.81;29373;224;63008;-64
2022/04/02 01:20:53;;;;;;;1.50;1.48;;;;;;;-0.45;89.09;95648.16;29373;349;63005;-61
2022/04/02 01:21:29;;;;;;;0.60;0.60;;;;;;;-0.44;88.89;95644.44;29371;259;64014;-55
2022/04/02 01:22:07;;;;;;;0.70;0.70;;;;;;;-0.48;89.27;95646.78;29393;250;64009;-59
2022/04/02 01:22:38;;;;;;;0.80;0.80;;;;;;;-0.52;89.37;95650.22;29395;303;63009;-60
2022/04/02 01:23:11;;;;;;;1.02;1.02;;;;;;;-0.50;89.10;95645.44;29373;206;63005;-63
2022/04/02 01:23:42;;;;;;;0.70;0.70;;;;;;;-0.44;88.97;95647.09;29373;245;63009;-63
2022/04/02 01:24:14;;;;;;;0.80;0.80;;;;;;;-0.41;88.52;95643.94;29373;251;63005;-61
2022/04/02 01:24:45;;;;;;;0.90;0.90;;;;;;;-0.43;88.66;95646.03;29371;205;64013;-62
2022/04/02 01:25:17;;;;;;;0.60;0.60;;;;;;;-0.46;88.92;95646.53;29371;243;64009;-61
2022/04/02 01:25:48;;;;;;;0.70;0.70;;;;;;;-0.49;89.09;95641.72;29373;226;63009;-60
2022/04/02 01:26:20;;;;;;;0.68;0.68;;;;;;;-0.55;88.99;95648.87;29373;197;63008;-60
2022/04/02 01:26:51;;;;;;;0.70;0.70;;;;;;;-0.59;89.70;95645.09;29373;333;63009;-61
2022/04/02 01:27:23;;;;;;;0.82;0.82;;;;;;;-0.59;89.77;95646.94;29373;369;63004;-63
2022/04/02 01:27:54;;;;;;;0.60;0.60;;;;;;;-0.60;89.76;95645.34;29373;214;63008;-63
2022/04/02 01:28:33;;;;;;;0.60;0.60;;;;;;;-0.54;89.76;95644.34;29373;298;63005;-63
2022/04/02 01:29:06;;;;;;;0.70;0.70;;;;;;;-0.46;89.56;95646.53;29373;221;63009;-58
2022/04/02 01:29:37;;;;;;;0.62;0.62;;;;;;;-0.44;89.12;95649.75;29371;246;64009;-61
2022/04/02 01:30:10;;;;;;;0.70;0.70;;;;;;;-0.47;89.17;95650.28;29373;296;63009;-61
2022/04/02 01:30:41;;;;;;;0.70;0.70;;;;;;;-0.44;88.93;95653.22;29372;210;64005;-62
2022/04/02 01:31:12;;;;;;;0.80;0.80;;;;;;;-0.45;89.05;95650.81;29373;238;63009;-60
2022/04/02 01:31:45;;;;;;;0.70;0.70;;;;;;;-0.47;88.89;95650.28;29373;202;63004;-61
2022/04/02 01:32:16;;;;;;;0.70;0.70;;;;;;;-0.47;89.25;95650.28;29373;228;63009;-64
2022/04/02 01:32:48;;;;;;;1.02;1.02;;;;;;;-0.47;89.26;95660.94;29371;294;64009;-63
2022/04/02 01:33:19;;;;;;;0.70;0.70;;;;;;;-0.48;89.08;95649.47;29373;223;63009;-60
2022/04/02 01:33:53;;;;;;;0.70;0.70;;;;;;;-0.49;88.84;95652.38;29373;297;63009;-59
2022/04/02 01:34:24;;;;;;;0.60;0.60;;;;;;;-0.54;89.16;95649.66;29373;335;63008;-60
2022/04/02 01:34:55;;;;;;;0.60;0.60;;;;;;;-0.60;89.34;95648.81;29373;226;63004;-60
2022/04/02 01:35:27;;;;;;;0.60;0.60;;;;;;;-0.67;89.69;95653.53;29373;202;63008;-58
2022/04/02 01:36:03;;;;;;;0.70;0.70;;;;;;;-0.74;89.88;95656.44;29373;226;63005;-58
2022/04/02 01:36:34;;;;;;;4.50;4.12;;;;;;;-0.78;90.33;95654.50;29373;199;63009;-60
2022/04/02 01:37:06;;;;;;;0.70;0.70;;;;;;;-0.81;90.42;95666.47;29373;221;63005;-60
2022/04/02 01:37:39;;;;;;;1.15;1.15;;;;;;;-0.83;90.77;95655.25;29373;253;63009;-58
2022/04/02 01:38:18;;;;;;;0.70;0.70;;;;;;;-0.86;91.15;95663.75;29371;208;64009;-59
2022/04/02 01:38:50;;;;;;;0.70;0.70;;;;;;;-0.89;91.56;95656.25;29373;227;63009;-61
2022/04/02 01:39:21;;;;;;;0.70;0.70;;;;;;;-0.86;91.74;95663.75;29373;207;63004;-60
2022/04/02 01:39:52;;;;;;;0.70;0.70;;;;;;;-0.85;92.03;95665.34;29373;264;63016;-55
2022/04/02 01:40:23;;;;;;;0.70;0.70;;;;;;;-0.87;91.95;95662.16;29373;254;63004;-61
2022/04/02 01:40:57;;;;;;;0.70;0.70;;;;;;;-0.89;92.19;95664.25;29373;239;63009;-59
2022/04/02 01:41:28;;;;;;;0.70;0.70;;;;;;;-0.91;92.35;95661.03;29373;260;63004;-60
2022/04/02 01:42:06;;;;;;;0.70;0.70;;;;;;;-0.91;92.34;95658.38;29371;230;64013;-59
2022/04/02 01:42:37;;;;;;;0.80;0.80;;;;;;;-0.91;92.29;95661.03;29373;226;63005;-59
2022/04/02 01:43:08;;;;;;;1.15;1.15;;;;;;;-0.94;92.78;95656.19;29373;232;63009;-59
2022/04/02 01:43:40;;;;;;;0.70;0.70;;;;;;;-0.97;92.72;95662.03;29373;221;63005;-58
2022/04/02 01:44:11;;;;;;;0.70;0.70;;;;;;;-0.95;93.15;95661.78;29373;260;63009;-62
2022/04/02 01:44:49;;;;;;;0.70;0.70;;;;;;;-0.86;92.82;95653.09;29373;199;63005;-62
2022/04/02 01:45:20;;;;;;;0.60;0.60;;;;;;;-0.81;92.90;95650.50;29373;223;63009;-61
2022/04/02 01:45:59;;;;;;;0.70;0.70;;;;;;;-0.77;92.64;95656.94;29373;253;63005;-61
2022/04/02 01:46:30;;;;;;;0.70;0.70;;;;;;;-0.74;92.67;95650.28;29373;199;63009;-60
2022/04/02 01:47:02;;;;;;;0.70;0.70;;;;;;;-0.73;92.57;95652.72;29371;202;64009;-60
2022/04/02 01:47:33;;;;;;;0.85;0.85;;;;;;;-0.70;92.31;95662.06;29373;264;63009;-61
2022/04/02 01:48:04;;;;;;;0.62;0.62;;;;;;;-0.68;92.11;95650.06;29373;215;63004;-58
2022/04/02 01:48:36;;;;;;;0.60;0.60;;;;;;;-0.70;91.99;95652.22;29373;256;63009;-59
2022/04/02 01:49:07;;;;;;;0.70;0.70;;;;;;;-0.71;91.84;95650.59;29373;196;63004;-59
2022/04/02 01:49:38;;;;;;;0.60;0.60;;;;;;;-0.73;92.28;95658.03;29373;218;63008;-59
2022/04/02 01:50:10;;;;;;;0.60;0.60;;;;;;;-0.71;92.09;95647.94;29373;210;63005;-61
2022/04/02 01:50:42;;;;;;;0.73;0.73;;;;;;;-0.64;92.15;95650.38;29373;221;63009;-54
2022/04/02 01:51:14;;;;;;;0.70;0.70;;;;;;;-0.53;91.30;95651.28;29373;364;63005;-60
2022/04/02 01:51:45;;;;;;;0.60;0.60;;;;;;;-0.51;90.47;95655.28;29371;209;64014;-59
2022/04/02 01:52:18;;;;;;;0.62;0.62;;;;;;;-0.52;90.30;95655.53;29371;220;64009;-60
2022/04/02 01:52:50;;;;;;;0.60;0.60;;;;;;;-0.52;90.28;95652.88;29373;197;63009;-60
2022/04/02 01:53:23;;;;;;;0.70;0.70;;;;;;;-0.53;90.23;95656.59;29373;226;63005;-60
2022/04/02 01:53:55;;;;;;;0.60;0.60;;;;;;;-0.58;90.56;95657.34;29371;244;64013;-59
2022/04/02 01:54:26;;;;;;;0.70;0.70;;;;;;;-0.63;90.75;95651.97;29373;240;63004;-54
2022/04/02 01:54:57;;;;;;;0.60;0.60;;;;;;;-0.67;90.79;95646.34;29373;245;63009;-54
2022/04/02 01:55:29;;;;;;;0.60;0.60;;;;;;;-0.70;91.09;95656.72;29371;206;64009;-61
2022/04/02 01:56:00;;;;;;;0.68;0.68;;;;;;;-0.71;91.05;95650.59;29373;236;63009;-60
2022/04/02 01:56:31;;;;;;;0.70;0.70;;;;;;;-0.71;91.42;95650.59;29373;213;63004;-60
2022/04/02 01:57:04;;;;;;;0.70;0.70;;;;;;;-0.67;91.53;95656.19;29373;223;63008;-60
2022/04/02 01:57:36;;;;;;;0.70;0.70;;;;;;;-0.65;91.46;95653.28;29373;272;63004;-60
2022/04/02 01:58:08;;;;;;;0.70;0.70;;;;;;;-0.68;91.56;95650.06;29373;199;63009;-59
2022/04/02 01:58:40;;;;;;;0.70;0.70;;;;;;;-0.68;91.21;95655.41;29373;307;63005;-59
2022/04/02 01:59:11;;;;;;;0.70;0.70;;;;;;;-0.71;91.36;95653.25;29373;218;63009;-59
2022/04/02 01:59:44;;;;;;;0.60;0.60;;;;;;;-0.74;91.43;95655.63;29373;249;63013;-59
2022/04/02 02:00:20;;;;;;;0.70;0.70;;;;;;;-0.78;91.58;95659.84;29373;262;63009;-60
2022/04/02 02:00:53;;;;;;;0.70;0.70;;;;;;;-0.80;91.92;95656.63;29371;282;64009;-60
2022/04/02 02:01:25;;;;;;;0.60;0.60;;;;;;;-0.80;91.77;95653.97;29373;244;63009;-60
2022/04/02 02:01:57;;;;;;;0.70;0.70;;;;;;;-0.75;92.01;95654.81;29373;214;63004;-59
2022/04/02 02:02:28;;;;;;;0.70;0.70;;;;;;;-0.75;91.86;95659.34;29373;310;63009;-59
2022/04/02 02:02:59;;;;;;;1.33;1.33;;;;;;;-0.78;91.86;95660.66;29373;228;63004;-59
2022/04/02 02:03:31;;;;;;;0.70;0.70;;;;;;;-0.75;91.61;95654.81;29371;325;64013;-59
2022/04/02 02:04:02;;;;;;;0.88;0.88;;;;;;;-0.75;91.50;95657.47;29373;209;63004;-61
2022/04/02 02:04:37;;;;;;;0.70;0.70;;;;;;;-0.73;91.44;95658.03;29373;202;63008;-59
2022/04/02 02:05:08;;;;;;;0.70;0.70;;;;;;;-0.72;91.56;95664.97;29373;212;63004;-63
2022/04/02 02:05:40;;;;;;;0.68;0.68;;;;;;;-0.72;91.51;95654.31;29373;209;63009;-61
2022/04/02 02:06:12;;;;;;;0.60;0.60;;;;;;;-0.70;91.48;95657.53;29373;229;63005;-59
2022/04/02 02:06:45;;;;;;;0.60;0.60;;;;;;;-0.72;91.62;95662.31;29373;216;63009;-60
2022/04/02 02:07:16;;;;;;;0.70;0.70;;;;;;;-0.72;91.83;95654.31;29371;347;64009;-59
2022/04/02 02:07:51;;;;;;;0.70;0.70;;;;;;;-0.72;91.83;95659.66;29373;197;63009;-61
2022/04/02 02:08:23;;;;;;;0.65;0.65;;;;;;;-0.66;91.79;95652.47;29373;203;63005;-61
2022/04/02 02:08:54;;;;;;;0.65;0.65;;;;;;;-0.62;91.62;95663.44;29373;200;63009;-60
2022/04/02 02:09:25;;;;;;;0.70;0.70;;;;;;;-0.69;91.25;95653.78;29373;227;63003;-60
2022/04/02 02:09:57;;;;;;;0.70;0.70;;;;;;;-0.65;91.28;95659.41;29373;202;63009;-59
2022/04/02 02:10:29;;;;;;;0.70;0.70;;;;;;;-0.67;91.06;95659.66;29373;203;63011;-60
2022/04/02 02:11:00;;;;;;;0.70;0.70;;;;;;;-0.69;91.24;95659.13;29373;288;63009;-59
2022/04/02 02:11:32;;;;;;;0.70;0.70;;;;;;;-0.70;91.25;95660.19;29373;298;63004;-60
2022/04/02 02:12:04;;;;;;;0.70;0.70;;;;;;;-0.72;91.34;95670.31;29373;214;63008;-59
2022/04/02 02:12:35;;;;;;;0.70;0.70;;;;;;;-0.71;91.69;95663.13;29371;303;64008;-59
2022/04/02 02:13:06;;;;;;;0.70;0.70;;;;;;;-0.72;91.93;95659.66;29373;219;63009;-59
2022/04/02 02:13:37;;;;;;;0.70;0.70;;;;;;;-0.72;91.83;95664.97;29371;226;64009;-60
2022/04/02 02:14:09;;;;;;;0.70;0.70;;;;;;;-0.72;91.81;95664.16;29373;235;63009;-60
2022/04/02 02:14:40;;;;;;;0.70;0.70;;;;;;;-0.73;92.00;95657.22;29373;236;63011;-60
2022/04/02 02:15:16;;;;;;;0.70;0.70;;;;;;;-0.73;91.90;95667.88;29373;204;63009;-60
2022/04/02 02:15:48;;;;;;;0.70;0.70;;;;;;;-0.71;92.20;95666.59;29373;204;63005;-62
2022/04/02 02:16:19;;;;;;;1.98;1.92;;;;;;;-0.65;92.41;95669.25;29373;199;63009;-61
2022/04/02 02:16:50;;;;;;;0.62;0.62;;;;;;;-0.64;92.13;95666.34;29373;222;63005;-59
2022/04/02 02:17:21;;;;;;;0.68;0.68;;;;;;;-0.65;92.35;95661.28;29373;284;63009;-59
2022/04/02 02:17:54;;;;;;;0.70;0.70;;;;;;;-0.57;91.77;95669.63;29373;228;63004;-62
2022/04/02 02:18:25;;;;;;;0.60;0.60;;;;;;;-0.54;91.06;95670.97;29371;218;64013;-59
2022/04/02 02:18:56;;;;;;;0.70;0.70;;;;;;;-0.53;90.67;95673.41;29373;226;63004;-61
2022/04/02 02:19:27;;;;;;;0.70;0.70;;;;;;;-0.56;90.91;95668.56;29373;211;63009;-59
2022/04/02 02:19:58;;;;;;;0.70;0.70;;;;;;;-0.58;90.55;95669.88;29373;232;63004;-60
2022/04/02 02:20:30;;;;;;;0.70;0.70;;;;;;;-0.61;90.92;95667.72;29373;228;63009;-59
2022/04/02 02:21:02;;;;;;;0.70;0.70;;;;;;;-0.61;90.74;95670.38;29373;219;63005;-59
2022/04/02 02:21:34;;;;;;;0.60;0.60;;;;;;;-0.51;91.14;95670.47;29373;266;63009;-66
2022/04/02 02:22:05;;;;;;;0.60;0.60;;;;;;;-0.42;90.08;95666.31;29371;256;64009;-62
2022/04/02 02:22:36;;;;;;;0.70;0.70;;;;;;;-0.43;89.71;95673.50;29373;221;63009;-55
2022/04/02 02:23:08;;;;;;;0.70;0.70;;;;;;;-0.46;89.40;95678.53;29373;230;63005;-59
2022/04/02 02:23:39;;;;;;;0.77;0.77;;;;;;;-0.52;89.71;95671.53;29373;245;63009;-59
2022/04/02 02:24:10;;;;;;;0.90;0.90;;;;;;;-0.59;89.57;95673.59;29371;206;64009;-60
2022/04/02 02:24:42;;;;;;;0.60;0.60;;;;;;;-0.61;90.13;95683.69;29373;206;63009;-61
2022/04/02 02:25:15;;;;;;;0.70;0.70;;;;;;;-0.50;89.57;95672.09;29373;202;63004;-60
2022/04/02 02:25:46;;;;;;;0.70;0.70;;;;;;;-0.51;89.07;95676.62;29373;204;63009;-55
2022/04/02 02:26:17;;;;;;;0.70;0.70;;;;;;;-0.42;88.83;95675.09;29373;196;63004;-59
2022/04/02 02:26:49;;;;;;;0.60;0.60;;;;;;;-0.43;88.89;95680.69;29373;207;63009;-59
2022/04/02 02:27:21;;;;;;;0.60;0.60;;;;;;;-0.46;88.69;95678.53;29373;265;63004;-62
2022/04/02 02:27:52;;;;;;;0.60;0.60;;;;;;;-0.45;88.75;95674.81;29373;224;63008;-60
2022/04/02 02:28:23;;;;;;;0.60;0.60;;;;;;;-0.44;89.01;95676.41;29373;216;63005;-63
2022/04/02 02:28:54;;;;;;;0.68;0.68;;;;;;;-0.44;89.01;95681.75;29373;244;63009;-60
2022/04/02 02:29:28;;;;;;;0.60;0.60;;;;;;;-0.44;89.19;95681.75;29371;210;64009;-58
2022/04/02 02:29:59;;;;;;;0.62;0.62;;;;;;;-0.50;89.36;95677.41;29373;238;63009;-60
2022/04/02 02:30:33;;;;;;;0.90;0.90;;;;;;;-0.53;89.27;95683.25;29373;200;63005;-59
2022/04/02 02:31:04;;;;;;;0.60;0.60;;;;;;;-0.58;89.54;95685.88;29373;202;63009;-59
2022/04/02 02:31:36;;;;;;;0.60;0.60;;;;;;;-0.61;89.41;95691.69;29373;207;63005;-60
2022/04/02 02:32:08;;;;;;;0.60;0.60;;;;;;;-0.64;89.89;95689.53;29373;216;63009;-59
2022/04/02 02:32:40;;;;;;;0.70;0.70;;;;;;;-0.67;90.17;95688.16;29371;252;64009;-59
2022/04/02 02:35:49;;;;;;;0.70;0.70;;;;;;;-0.65;90.73;95690.56;29371;203;64009;-58
2022/04/02 02:36:21;;;;;;;0.70;0.70;;;;;;;-0.67;90.94;95686.31;29373;276;63009;-58